Nordfjordeid, Norway

10:54 PM CEST on April 27, 2017 (GMT +0200)
Eid | | Change Station

Elev 0 ft 61.92 °N, 6.02 °E | Updated 4 minutes ago

Partly Cloudy
Partly Cloudy
37.0 °F
Feels Like 37 °F
N
1.2
Wind Variable Wind from NNW
Gusts 3.7 mph

Today
High -- | Low -- °F
--% Chance of Precip.
Yesterday
High -- | Low -- °F
Precip. -- in
Pressure 29.83 in
Visibility 6.2 miles
Clouds Few 3000 ft
Scattered Clouds 6000 ft
Mostly Cloudy 7000 ft
Windchill 37 °F
Dew Point 30 °F
Humidity 77%
Rainfall Not available.
Snow Depth Not available.
5:35 AM 9:34 PM
Waxing Crescent, 3% visible
METAR ENBL 272020Z 36012KT 9999 FEW030 SCT060 BKN070 02/M03 Q1010
Pressure 29.83 in
Visibility 6.2 miles
Clouds Few 3000 ft
Scattered Clouds 6000 ft
Mostly Cloudy 7000 ft
Windchill 37 °F
Dew Point 30 °F
Humidity 77%
Rainfall Not available.
Snow Depth Not available.
5:35 AM 9:34 PM
Waxing Crescent, 3% visible
METAR ENBL 272020Z 36012KT 9999 FEW030 SCT060 BKN070 02/M03 Q1010

Get Severe Weather Alerts

Thanks for signing up!

Be on the lookout for a verification email in your inbox.

You'll start receiving the daily forecast at 8 AM.

×

10-Day Weather Forecast

×

Almanac

Astronomy

Apr. 27, 2017 Rise Set
Actual Time
Civil Twilight
Nautical Twilight
Astronomical Twilight
Moon
Length of Visible Light
Length of Day
Tomorrow will be .
, % of the Moon is Illuminated

Today's Extremes

Country Highs Country Lows

Community

WunderPhotos

WunderBlog® & News

Nearby

Air Quality

  Air Quality AQ Index Pollutant
Not available.

Snow Depth

Station Depth Elevation

Earthquake Activity

City Distance Mag. Time & Date
Minimum magnitude displayed is 2.5.

Coastal Water Temperatures

Place Temperature

Stations

Nearby Weather Stations

Station Location Temp. Windchill Dew Point Humidity Wind Precip. Elev Updated Type